• Join FlightAware (Why Join?)
  • Login
  • US Flag 
11:03AM EDT


 

Airport Tracker/Info


-or-


 

Live Flight TrackerFlight Track Log ✈ SWA1174 ✈ 30-Apr-2012 ✈ KPHX - KMCO

Flight Track Log - Related Links

Times and Time Zones

All times are in EDT time to prevent confusion due to time zone crossing. See the SWA1174 flight status page for this flight to view local times or setup timezone preferences in your user account.

Time Position Orientation Groundspeed Altitude Reporting Facility
EDT Latitude Longitude Course Direction KTS MPH feet Rate Location/Type
07:59PM 33.4333 -112.0333 253° West 157 181 2,100  Level Phoenix TRACON
08:00PM 33.4167 -112.1000 253° West 215 247 4,200 2,520 Climbing Phoenix TRACON
08:01PM 33.4000 -112.1667 184° South 228 262 7,500 3,060 Climbing Phoenix TRACON
08:02PM 33.3469 -112.1706 118° Southeast 277 319 9,500 2,700 Climbing Albuquerque Center
08:03PM 33.3000 -112.0667 72° East 340 391 12,900 2,940 Climbing Phoenix TRACON
08:05PM 33.3547 -111.8628 69° East 385 443 18,400 2,820 Climbing Albuquerque Center
08:06PM 33.3950 -111.7356 69° East 390 449 21,000 1,680 Climbing Albuquerque Center
08:07PM 33.4350 -111.6081 71° East 396 456 21,800 1,800 Climbing Albuquerque Center
08:08PM 33.4731 -111.4733 71° East 409 471 24,600 2,400 Climbing Albuquerque Center
08:09PM 33.5064 -111.3578 82° East 409 471 26,700 1,800 Climbing Albuquerque Center
08:10PM 33.5236 -111.2117 83° East 421 484 28,300 1,800 Climbing Albuquerque Center
08:11PM 33.5386 -111.0631 82° East 433 498 30,300 1,920 Climbing Albuquerque Center
08:12PM 33.5558 -110.9142 71° East 443 510 32,200 1,980 Climbing Albuquerque Center
08:13PM 33.5953 -110.7739 68° East 448 516 34,400 1,860 Climbing Albuquerque Center
08:14PM 33.6408 -110.6383 69° East 434 499 36,000 1,500 Climbing Albuquerque Center
08:15PM 33.6842 -110.5028 68° East 434 499 37,500 1,500 Climbing Albuquerque Center
08:16PM 33.7294 -110.3647 70° East 439 505 39,000 720 Climbing Albuquerque Center
08:17PM 33.7700 -110.2339 69° East 428 493 39,000  Level Albuquerque Center
08:18PM 33.8128 -110.1003 69° East 428 493 39,000  Level Albuquerque Center
08:19PM 33.8556 -109.9667 70° East 428 493 39,000  Level Albuquerque Center
08:20PM 33.8958 -109.8353 68° East 428 493 39,000  Level Albuquerque Center
08:21PM 33.9403 -109.6992 70° East 428 493 39,000  Level Albuquerque Center
08:22PM 33.9803 -109.5675 69° East 428 493 39,000  Level Albuquerque Center
08:23PM 34.0225 -109.4358 69° East 428 493 39,000  Level Albuquerque Center
08:24PM 34.0642 -109.3014 69° East 428 493 39,000  Level Albuquerque Center
08:25PM 34.1125 -109.1522 69° East 433 498 39,000  Level Albuquerque Center
08:26PM 34.1542 -109.0175 69° East 433 498 39,000  Level Albuquerque Center
08:27PM 34.1956 -108.8853 81° East 428 493 39,000  Level Albuquerque Center
08:28PM 34.2139 -108.7400 85° East 428 493 39,000  Level Albuquerque Center
08:29PM 34.2239 -108.5944 84° East 428 493 39,000  Level Albuquerque Center
08:30PM 34.2358 -108.4464 86° East 433 498 39,000  Level Albuquerque Center
08:31PM 34.2433 -108.3008 85° East 433 498 39,000  Level Albuquerque Center
08:32PM 34.2547 -108.1550 88° East 433 498 39,000  Level Albuquerque Center
08:33PM 34.2597 -108.0119 86° East 426 490 39,000  Level Albuquerque Center
08:34PM 34.2689 -107.8639 85° East 431 496 39,000  Level Albuquerque Center
08:35PM 34.2797 -107.7131 85° East 437 503 39,000  Level Albuquerque Center
08:36PM 34.2906 -107.5647 86° East 442 509 39,000  Level Albuquerque Center
08:37PM 34.2992 -107.4164 85° East 441 507 39,000  Level Albuquerque Center
08:38PM 34.3094 -107.2656 86° East 441 507 39,000  Level Albuquerque Center
08:39PM 34.3175 -107.1122 86° East 450 518 39,000  Level Albuquerque Center
08:40PM 34.3256 -106.9664 86° East 450 518 39,000  Level Albuquerque Center
08:41PM 34.3353 -106.8103 84° East 450 518 39,000  Level Albuquerque Center
08:42PM 34.3472 -106.6619 89° East 450 518 39,000  Level Albuquerque Center
08:43PM 34.3503 -106.5058 87° East 450 518 39,000  Level Albuquerque Center
08:44PM 34.3575 -106.3522 87° East 463 533 39,000  Level Albuquerque Center
08:45PM 34.3644 -106.2039 85° East 458 527 39,000  Level Albuquerque Center
08:46PM 34.3753 -106.0478 87° East 453 521 39,000  Level Albuquerque Center
08:47PM 34.3819 -105.8942 86° East 453 521 39,000  Level Albuquerque Center
08:48PM 34.3906 -105.7403 87° East 462 532 39,000  Level Albuquerque Center
08:49PM 34.3969 -105.6017 87° East 456 525 39,000  Level Albuquerque Center
08:50PM 34.4047 -105.4406 87° East 464 534 39,000 600 Level Albuquerque Center
08:51PM 34.4106 -105.2817 87° East 469 540 40,200 900 Climbing Albuquerque Center
08:52PM 34.4181 -105.1206 87° East 474 545 40,800 360 Climbing Albuquerque Center
08:53PM 34.4253 -104.9567 87° East 483 556 41,000 60 Climbing Albuquerque Center
08:54PM 34.4322 -104.7953 87° East 478 550 41,000  Level Albuquerque Center
08:55PM 34.4392 -104.6314 88° East 478 550 41,000  Level Albuquerque Center
08:56PM 34.4436 -104.4675 87° East 483 556 41,000  Level Albuquerque Center
08:57PM 34.4500 -104.3036 87° East 483 556 41,000  Level Albuquerque Center
08:58PM 34.4578 -104.1269 88° East 477 549 41,000  Level Albuquerque Center
08:59PM 34.4617 -103.9631 87° East 477 549 41,000  Level Albuquerque Center
09:00PM 34.4675 -103.8017 88° East 482 555 41,000  Level Albuquerque Center
09:01PM 34.4731 -103.6375 88° East 477 549 41,000  Level Albuquerque Center
09:03PM 34.4844 -103.2783 89° East 480 552 41,000  Level Fort Worth Center
09:04PM 34.4875 -103.1172 88° East 480 552 41,000  Level Fort Worth Center
09:05PM 34.4928 -102.9539 92° East 480 552 41,000  Level Fort Worth Center
09:06PM 34.4875 -102.7872 97° East 480 552 41,000  Level Fort Worth Center
09:07PM 34.4714 -102.6275 97° East 480 552 41,000  Level Fort Worth Center
09:08PM 34.4553 -102.4628 96° East 485 558 41,000  Level Fort Worth Center
09:09PM 34.4394 -102.2806 98° East 491 565 41,000  Level Fort Worth Center
09:10PM 34.4206 -102.1236 98° East 491 565 41,000  Level Fort Worth Center
09:11PM 34.4033 -101.9667 98° East 472 543 41,000  Level Fort Worth Center
09:12PM 34.3861 -101.8097 98° East 463 533 41,000  Level Fort Worth Center
09:13PM 34.3686 -101.6503 97° East 469 540 41,000  Level Fort Worth Center
09:14PM 34.3531 -101.4936 100° East 463 533 41,000  Level Fort Worth Center
09:15PM 34.3342 -101.3594 95° East 463 533 41,000  Level Fort Worth Center
09:16PM 34.3225 -101.2031 92° East 463 533 41,000  Level Fort Worth Center
09:17PM 34.3186 -101.0469 92° East 463 533 41,000  Level Fort Worth Center
09:18PM 34.3150 -100.8883 91° East 463 533 41,000  Level Fort Worth Center
09:19PM 34.3131 -100.7275 91° East 463 533 41,000  Level Fort Worth Center
09:20PM 34.3108 -100.5714 92° East 463 533 41,000  Level Fort Worth Center
09:21PM 34.3047 -100.3953 90° East 468 539 41,000  Level Fort Worth Center
09:22PM 34.3044 -100.2267 89° East 479 551 41,000  Level Fort Worth Center
09:23PM 34.3058 -100.0608 86° East 484 557 41,000  Level Fort Worth Center
09:24PM 34.3156 -99.8928 81° East 494 568 41,000  Level Fort Worth Center
09:25PM 34.3378 -99.7222 81° East 506 582 41,000  Level Fort Worth Center
09:26PM 34.3572 -99.5644 87° East 513 590 41,000  Level Fort Worth Center
09:27PM 34.3642 -99.3933 90° East 513 590 41,000  Level Fort Worth Center
09:28PM 34.3647 -99.2125 92° East 507 583 41,000  Level Fort Worth Center
09:29PM 34.3608 -99.0486 100° East 497 572 41,000  Level Fort Worth Center
09:30PM 34.3358 -98.8797 102° East 497 572 41,000  Level Fort Worth Center
09:31PM 34.3083 -98.7183 100° East 502 578 41,000  Level Fort Worth Center
09:32PM 34.2828 -98.5494 101° East 502 578 41,000  Level Fort Worth Center
09:33PM 34.2572 -98.3883 100° East 502 578 41,000  Level Fort Worth Center
09:34PM 34.2311 -98.2172 102° East 510 587 41,000  Level Fort Worth Center
09:35PM 34.2050 -98.0689 101° East 510 587 41,000  Level Fort Worth Center
09:36PM 34.1786 -97.9006 101° East 510 587 41,000  Level Fort Worth Center
09:37PM 34.1519 -97.7297 101° East 510 587 41,000  Level Fort Worth Center
09:38PM 34.1253 -97.5614 101° East 510 587 41,000  Level Fort Worth Center
09:39PM 34.0939 -97.3758 98° East 510 587 41,000  Level Fort Worth Center
09:40PM 34.0772 -97.2278 102° East 504 580 41,000  Level Fort Worth Center
09:41PM 34.0497 -97.0675 101° East 504 580 41,000  Level Fort Worth Center
09:42PM 34.0242 -96.9047 101° East 493 567 41,000  Level Fort Worth Center
09:43PM 33.9983 -96.7469 102° East 480 552 41,000  Level Fort Worth Center
09:44PM 33.9681 -96.5744 101° East 480 552 41,000  Level Fort Worth Center
09:45PM 33.9419 -96.4169 102° East 480 552 41,000  Level Fort Worth Center
09:46PM 33.9133 -96.2572 101° East 480 552 41,000  Level Fort Worth Center
09:47PM 33.8869 -96.0975 102° East 486 559 41,000  Level Fort Worth Center
09:48PM 33.8581 -95.9403 100° East 486 559 41,000  Level Fort Worth Center
09:49PM 33.8331 -95.7781 103° East 484 557 41,000  Level Fort Worth Center
09:50PM 33.8036 -95.6211 105° East 484 557 41,000  Level Fort Worth Center
09:51PM 33.7725 -95.4844 103° East 484 557 41,000  Level Fort Worth Center
09:52PM 33.7428 -95.3278 102° East 484 557 41,000  Level Fort Worth Center
09:53PM 33.7150 -95.1686 103° East 484 557 41,000  Level Fort Worth Center
09:54PM 33.6853 -95.0169 100° East 484 557 41,000  Level Fort Worth Center
09:55PM 33.6611 -94.8606 102° East 477 549 41,000  Level Fort Worth Center
09:56PM 33.6328 -94.7042 102° East 477 549 41,000  Level Fort Worth Center
09:57PM 33.6044 -94.5478 103° East 477 549 41,000  Level Fort Worth Center
09:58PM 33.5758 -94.3944 102° East 472 543 41,000  Level Fort Worth Center
09:59PM 33.5492 -94.2431 102° East 467 537 41,000  Level Fort Worth Center
10:00PM 33.5222 -94.0922 104° East 467 537 41,000  Level Fort Worth Center
10:01PM 33.4908 -93.9364 102° East 473 544 41,000  Level Fort Worth Center
10:02PM 33.4608 -93.7633 104° East 473 544 41,000  Level Fort Worth Center
10:04PM 33.3997 -93.4647 103° East 467 537 41,000  Level Fort Worth Center
10:05PM 33.3697 -93.3119 103° East 467 537 41,000  Level Fort Worth Center
10:06PM 33.3417 -93.1617 103° East 467 537 41,000  Level Fort Worth Center
10:07PM 33.3114 -93.0064 104° East 467 537 41,000  Level Fort Worth Center
10:08PM 33.2811 -92.8564 104° East 467 537 41,000  Level Fort Worth Center
10:09PM 33.2483 -92.7042 108° East 467 537 41,000  Level Fort Worth Center
10:10PM 33.2094 -92.5622 109° East 462 532 41,000  Level Fort Worth Center
10:11PM 33.1661 -92.4158 108° East 462 532 41,000  Level Fort Worth Center
10:14PM 33.0753 -92.0928 110° East 465 535 41,000  Level Memphis Center
10:15PM 33.0275 -91.9331 109° East 465 535 41,000  Level Memphis Center
10:16PM 32.9853 -91.7864 108° East 460 529 41,000  Level Memphis Center
10:17PM 32.9450 -91.6419 108° East 460 529 41,000  Level Memphis Center
10:18PM 32.9047 -91.4956 102° East 465 535 41,000  Level Memphis Center
10:19PM 32.8769 -91.3467 106° East 465 535 41,000  Level Memphis Center
10:20PM 32.8425 -91.2006 105° East 459 528 41,000  Level Memphis Center
10:21PM 32.8100 -91.0542 105° East 454 522 41,000  Level Memphis Center
10:22PM 32.7772 -90.9108 105° East 454 522 41,000  Level Memphis Center
10:23PM 32.7486 -90.7797 105° East 459 528 41,000  Level Memphis Center
10:24PM 32.7156 -90.6339 105° East 453 521 41,000  Level Memphis Center
10:25PM 32.6822 -90.4881 106° East 453 521 41,000  Level Memphis Center
10:26PM 32.6469 -90.3425 105° East 453 521 41,000  Level Memphis Center
10:27PM 32.6133 -90.1969 106° East 453 521 41,000  Level Memphis Center
10:28PM 32.5775 -90.0492 105° East 453 521 41,000  Level Memphis Center
10:29PM 32.5436 -89.9014 106° East 453 521 41,000  Level Memphis Center
10:30PM 32.5075 -89.7539 105° East 453 521 41,000  Level Memphis Center
10:31PM 32.4711 -89.5939 105° East 453 521 41,000  Level Memphis Center
10:32PM 32.4369 -89.4467 106° East 453 521 41,000  Level Memphis Center
10:33PM 32.4022 -89.3042 106° East 453 521 41,000  Level Memphis Center
10:34PM 32.3675 -89.1594 106° East 453 521 41,000  Level Memphis Center
10:35PM 32.3328 -89.0150 106° East 453 521 41,000  Level Memphis Center
10:36PM 32.2978 -88.8706 106° East 453 521 41,000  Level Memphis Center
10:37PM 32.2444 -88.6578 106° East 474 545 41,000  Level Atlanta Center
10:38PM 32.2083 -88.5111 107° East 474 545 41,000  Level Atlanta Center
10:39PM 32.1697 -88.3644 112° Southeast 469 540 41,000  Level Atlanta Center
10:40PM 32.1222 -88.2250 111° Southeast 464 534 41,000  Level Atlanta Center
10:41PM 32.0769 -88.0856 113° Southeast 459 528 41,000  Level Atlanta Center
10:42PM 32.0272 -87.9461 112° Southeast 454 522 41,000  Level Atlanta Center
10:43PM 31.9814 -87.8094 112° Southeast 454 522 41,000  Level Atlanta Center
10:44PM 31.9314 -87.6606 113° Southeast 454 522 41,000  Level Atlanta Center
10:45PM 31.8811 -87.5239 111° Southeast 454 522 41,000  Level Atlanta Center
10:46PM 31.8350 -87.3853 114° Southeast 454 522 41,000  Level Atlanta Center
10:47PM 31.7881 -87.2589 113° Southeast 459 528 41,000  Level Atlanta Center
10:50PM 31.6661 -86.9222 114° Southeast 461 531 41,000  Level Jacksonville Center
10:51PM 31.6142 -86.7836 113° Southeast 452 520 41,000  Level Jacksonville Center
10:52PM 31.5639 -86.6450 112° Southeast 459 528 41,000  Level Jacksonville Center
10:53PM 31.5158 -86.5064 117° Southeast 459 528 41,000  Level Jacksonville Center
10:54PM 31.4589 -86.3753 123° Southeast 459 528 41,000  Level Jacksonville Center
10:55PM 31.3872 -86.2483 122° Southeast 459 528 41,000  Level Jacksonville Center
10:56PM 31.3217 -86.1244 123° Southeast 454 522 41,000  Level Jacksonville Center
10:57PM 31.2517 -86.0006 123° Southeast 454 522 41,000  Level Jacksonville Center
10:58PM 31.1756 -85.8644 122° Southeast 454 522 41,000  Level Jacksonville Center
10:59PM 31.1075 -85.7386 123° Southeast 454 522 41,000  Level Jacksonville Center
11:00PM 31.0411 -85.6178 123° Southeast 449 517 41,000  Level Jacksonville Center
11:01PM 30.9728 -85.4947 123° Southeast 449 517 41,000  Level Jacksonville Center
11:02PM 30.9042 -85.3694 124° Southeast 449 517 41,000  Level Jacksonville Center
11:03PM 30.8336 -85.2467 123° Southeast 449 517 41,000  Level Jacksonville Center
11:04PM 30.7647 -85.1239 123° Southeast 449 517 41,000  Level Jacksonville Center
11:05PM 30.6958 -85.0017 125° Southeast 449 517 41,000  Level Jacksonville Center
11:06PM 30.6247 -84.8817 122° Southeast 449 517 41,000  Level Jacksonville Center
11:07PM 30.5578 -84.7572 124° Southeast 449 517 41,000  Level Jacksonville Center
11:08PM 30.4906 -84.6403 125° Southeast 444 511 41,000  Level Jacksonville Center
11:09PM 30.4169 -84.5186 123° Southeast 449 517 41,000  Level Jacksonville Center
11:10PM 30.3475 -84.3969 123° Southeast 449 517 41,000  Level Jacksonville Center
11:11PM 30.2800 -84.2781 126° Southeast 449 517 41,000  Level Jacksonville Center
11:12PM 30.2081 -84.1617 124° Southeast 444 511 41,000  Level Jacksonville Center
11:13PM 30.1381 -84.0406 123° Southeast 444 511 41,000  Level Jacksonville Center
11:14PM 30.0703 -83.9197 123° Southeast 444 511 41,000  Level Jacksonville Center
11:15PM 30.0003 -83.7969 124° Southeast 444 511 41,000  Level Jacksonville Center
11:16PM 29.9300 -83.6786 124° Southeast 449 517 41,000  Level Jacksonville Center
11:17PM 29.8578 -83.5558 125° Southeast 449 517 41,000 -60 Level Jacksonville Center
11:18PM 29.7853 -83.4358 125° Southeast 449 517 40,900 -1,200 Descending Jacksonville Center
11:19PM 29.7147 -83.3183 125° Southeast 449 517 38,700 -2,220 Descending Jacksonville Center
11:20PM 29.6481 -83.2081 124° Southeast 458 527 36,500 -2,340 Descending Jacksonville Center
11:21PM 29.5775 -83.0861 123° Southeast 458 527 34,000 -2,580 Descending Jacksonville Center
11:22PM 29.5108 -82.9689 125° Southeast 458 527 31,500 -2,880 Descending Jacksonville Center
11:23PM 29.4397 -82.8519 124° Southeast 452 520 28,400 -3,000 Descending Jacksonville Center
11:24PM 29.3728 -82.7400 124° Southeast 441 507 25,500 -2,520 Descending Jacksonville Center
11:25PM 29.3081 -82.6306 124° Southeast 435 501 23,400 -1,560 Descending Jacksonville Center
11:26PM 29.2472 -82.5283 125° Southeast 413 475 22,400 -1,200 Descending Jacksonville Center
11:27PM 29.1842 -82.4264 125° Southeast 398 458 21,000 -2,040 Descending Jacksonville Center
11:28PM 29.1253 -82.3292 124° Southeast 380 437 18,400 -2,460 Descending Jacksonville Center
11:29PM 29.0686 -82.2344 124° Southeast 374 430 16,100 -2,460 Descending Jacksonville Center
11:30PM 29.0139 -82.1422 124° Southeast 368 423 13,500 -2,280 Descending Jacksonville Center
11:31PM 28.9633 -82.0572 128° Southeast 348 400 11,600 -1,260 Descending Jacksonville Center
11:32PM 28.9125 -81.9817 123° Southeast 325 374 11,000 -300 Descending Jacksonville Center
11:33PM 28.8703 -81.9064 120° Southeast 298 343 11,000  Level Jacksonville Center
11:33PM 28.8500 -81.8667 120° Southeast 266 306 11,000 -180 Level Orlando TRACON
11:34PM 28.8167 -81.8000 120° Southeast 271 312 10,800 -960 Descending Orlando TRACON
11:35PM 28.7833 -81.7333 111° Southeast 265 305 9,300 -1,740 Descending Orlando TRACON
11:36PM 28.7500 -81.6333 120° Southeast 264 304 7,400 -1,560 Descending Orlando TRACON
11:37PM 28.7167 -81.5667 120° Southeast 258 297 6,100 -1,440 Descending Orlando TRACON
11:38PM 28.6833 -81.5000 120° Southeast 249 287 4,600 -1,500 Descending Orlando TRACON
11:39PM 28.6500 -81.4333 127° Southeast 242 278 3,200 -900 Descending Orlando TRACON
11:40PM 28.6167 -81.3833 130° Southeast 220 253 3,000 -360 Descending Orlando TRACON
11:42PM 28.5667 -81.3167 156° South 190 219 2,500 -420 Descending Orlando TRACON
11:43PM 28.5333 -81.3000 180° South 161 185 2,100 -660 Descending Orlando TRACON
11:44PM 28.4833 -81.3000 180° South 149 171 1,200 -780 Descending Orlando TRACON
11:45PM 28.4500 -81.3000 180° South 129 148 500 -720 Descending Orlando TRACON